createdAt,value
2023-07-29T00:00:51.187Z,18.90
2023-07-29T00:01:51.146Z,18.86
2023-07-29T00:02:51.069Z,18.97
2023-07-29T00:03:51.018Z,19.01
2023-07-29T00:04:50.881Z,19.01
2023-07-29T00:05:50.809Z,19.01
2023-07-29T00:06:50.721Z,18.97
2023-07-29T00:07:50.653Z,18.97
2023-07-29T00:08:50.574Z,19.01
2023-07-29T00:09:50.521Z,18.95
2023-07-29T00:10:50.440Z,18.97
2023-07-29T00:11:50.358Z,19.01
2023-07-29T00:12:50.270Z,18.99
2023-07-29T00:13:50.193Z,19.01
2023-07-29T00:14:50.116Z,18.98
2023-07-29T00:15:50.043Z,18.97
2023-07-29T00:16:50.005Z,18.95
2023-07-29T00:17:49.922Z,18.87
2023-07-29T00:18:49.819Z,18.89
2023-07-29T00:19:49.769Z,18.89
2023-07-29T00:20:49.658Z,18.83
2023-07-29T00:21:49.586Z,18.92
2023-07-29T00:22:49.500Z,18.94
2023-07-29T00:23:49.432Z,18.79
2023-07-29T00:24:49.354Z,18.82
2023-07-29T00:25:49.297Z,18.79
2023-07-29T00:26:49.198Z,18.82
2023-07-29T00:27:49.137Z,18.86
2023-07-29T00:28:49.047Z,18.76
2023-07-29T00:29:48.990Z,18.74
2023-07-29T00:30:48.994Z,18.77
2023-07-29T00:31:48.934Z,18.76
2023-07-29T00:32:48.811Z,18.74
2023-07-29T00:33:48.679Z,18.62
2023-07-29T00:34:48.593Z,18.68
2023-07-29T00:35:48.512Z,18.69
2023-07-29T00:36:48.440Z,18.69
2023-07-29T00:37:48.359Z,18.64
2023-07-29T00:38:48.293Z,18.65
2023-07-29T00:39:48.208Z,18.73
2023-07-29T00:40:48.133Z,18.69
2023-07-29T00:41:48.068Z,18.67
2023-07-29T00:42:47.985Z,18.69
2023-07-29T00:43:47.900Z,18.67
2023-07-29T00:44:47.831Z,18.65
2023-07-29T00:45:47.758Z,18.61
2023-07-29T00:46:47.708Z,18.55
2023-07-29T00:47:47.676Z,18.61
2023-07-29T00:48:47.611Z,18.49
2023-07-29T00:49:47.456Z,18.58
2023-07-29T00:50:47.382Z,18.57
2023-07-29T00:51:47.299Z,18.40
2023-07-29T00:52:47.209Z,18.46
2023-07-29T00:53:47.136Z,18.44
2023-07-29T00:54:47.065Z,18.47
2023-07-29T00:55:46.980Z,18.39
2023-07-29T00:56:46.912Z,18.42
2023-07-29T00:57:46.837Z,18.47
2023-07-29T00:58:46.758Z,18.44
2023-07-29T00:59:46.680Z,18.43
2023-07-29T01:00:46.612Z,18.44
2023-07-29T01:01:46.566Z,18.43
2023-07-29T01:02:46.537Z,18.40
2023-07-29T01:03:46.551Z,18.43
2023-07-29T01:04:46.300Z,18.47
2023-07-29T01:05:46.222Z,18.40
2023-07-29T01:06:46.142Z,18.35
2023-07-29T01:07:46.072Z,18.32
2023-07-29T01:08:45.989Z,18.25
2023-07-29T01:09:45.909Z,18.29
2023-07-29T01:10:45.850Z,18.28
2023-07-29T01:11:45.763Z,18.19
2023-07-29T01:12:45.683Z,18.16
2023-07-29T01:13:45.612Z,18.19
2023-07-29T01:14:45.544Z,18.19
2023-07-29T01:15:45.492Z,18.18
2023-07-29T01:16:45.385Z,18.19
2023-07-29T01:17:45.350Z,18.09
2023-07-29T01:18:45.239Z,18.06
2023-07-29T01:19:45.151Z,18.19
2023-07-29T01:20:45.071Z,18.03
2023-07-29T01:21:44.996Z,18.04
2023-07-29T01:22:44.925Z,18.06
2023-07-29T01:23:44.839Z,18.07
2023-07-29T01:24:44.774Z,18.03
2023-07-29T01:25:44.686Z,18.09
2023-07-29T01:26:44.614Z,18.00
2023-07-29T01:27:44.537Z,18.03
2023-07-29T01:28:44.456Z,18.00
2023-07-29T01:29:44.382Z,18.07
2023-07-29T01:30:44.312Z,17.96
2023-07-29T01:31:44.248Z,17.96
2023-07-29T01:32:44.183Z,18.03
2023-07-29T01:33:44.084Z,17.95
2023-07-29T01:34:44.003Z,17.92
2023-07-29T01:35:43.920Z,17.88
2023-07-29T01:36:46.077Z,17.85
2023-07-29T01:37:43.777Z,17.92
2023-07-29T01:38:43.694Z,17.98
2023-07-29T01:39:43.617Z,17.92
2023-07-29T01:40:43.548Z,17.94
2023-07-29T01:41:43.462Z,17.95
2023-07-29T01:42:43.389Z,17.91
2023-07-29T01:43:43.314Z,18.00
2023-07-29T01:44:43.250Z,17.96
2023-07-29T01:45:43.189Z,17.98
2023-07-29T01:46:43.106Z,17.92
2023-07-29T01:47:43.172Z,17.88
2023-07-29T01:48:42.993Z,17.85
2023-07-29T01:49:42.865Z,17.91
2023-07-29T01:50:42.784Z,17.87
2023-07-29T01:51:42.695Z,17.85
2023-07-29T01:52:42.624Z,17.91
2023-07-29T01:53:42.544Z,17.88
2023-07-29T01:54:42.467Z,17.91
2023-07-29T01:55:42.438Z,17.88
2023-07-29T01:56:42.307Z,17.95
2023-07-29T01:57:42.233Z,17.95
2023-07-29T01:58:42.163Z,17.94
2023-07-29T01:59:42.073Z,17.96
2023-07-29T02:00:42.017Z,18.02
2023-07-29T02:01:41.946Z,17.95
2023-07-29T02:02:41.959Z,17.91
2023-07-29T02:03:41.774Z,17.95
2023-07-29T02:04:41.763Z,18.06
2023-07-29T02:05:41.632Z,18.10
2023-07-29T02:06:41.543Z,18.09
2023-07-29T02:07:41.463Z,18.06
2023-07-29T02:08:41.393Z,18.06
2023-07-29T02:09:41.310Z,18.02
2023-07-29T02:10:41.233Z,18.04
2023-07-29T02:11:41.170Z,18.10
2023-07-29T02:12:41.085Z,18.09
2023-07-29T02:13:41.006Z,18.04
2023-07-29T02:14:40.934Z,17.94
2023-07-29T02:15:40.843Z,17.98
2023-07-29T02:16:41.241Z,18.00
2023-07-29T02:17:40.735Z,17.91
2023-07-29T02:18:40.628Z,17.92
2023-07-29T02:19:40.542Z,17.81
2023-07-29T02:20:40.473Z,17.79
2023-07-29T02:21:40.393Z,17.81
2023-07-29T02:22:40.316Z,17.82
2023-07-29T02:23:40.240Z,17.70
2023-07-29T02:24:40.175Z,17.69
2023-07-29T02:25:40.080Z,17.64
2023-07-29T02:26:40.011Z,17.71
2023-07-29T02:27:39.931Z,17.66
2023-07-29T02:28:39.862Z,17.70
2023-07-29T02:29:39.780Z,17.63
2023-07-29T02:30:39.704Z,17.58
2023-07-29T02:31:39.621Z,17.57
2023-07-29T02:32:39.613Z,17.43
2023-07-29T02:33:39.531Z,17.33
2023-07-29T02:34:39.391Z,17.29
2023-07-29T02:35:39.325Z,17.30
2023-07-29T02:36:39.375Z,17.29
2023-07-29T02:37:39.216Z,17.29
2023-07-29T02:38:39.087Z,17.29
2023-07-29T02:39:39.009Z,17.38
2023-07-29T02:40:38.929Z,17.39
2023-07-29T02:41:38.851Z,17.26
2023-07-29T02:42:38.796Z,17.38
2023-07-29T02:43:38.693Z,17.29
2023-07-29T02:44:38.620Z,17.30
2023-07-29T02:45:38.539Z,17.18
2023-07-29T02:46:38.725Z,17.29
2023-07-29T02:47:38.422Z,17.13
2023-07-29T02:48:38.327Z,17.25
2023-07-29T02:49:38.232Z,17.15
2023-07-29T02:50:38.163Z,17.15
2023-07-29T02:51:38.101Z,17.11
2023-07-29T02:52:38.014Z,17.11
2023-07-29T02:53:37.935Z,17.11
2023-07-29T02:54:37.854Z,17.21
2023-07-29T02:55:37.774Z,17.15
2023-07-29T02:56:38.035Z,17.18
2023-07-29T02:57:37.617Z,17.15
2023-07-29T02:58:37.552Z,17.15
2023-07-29T02:59:37.479Z,17.15
2023-07-29T03:00:37.409Z,17.07
2023-07-29T03:01:37.316Z,17.08
2023-07-29T03:02:37.299Z,17.08
2023-07-29T03:03:37.380Z,17.11
2023-07-29T03:04:37.087Z,17.14
2023-07-29T03:05:37.006Z,17.05
2023-07-29T03:06:37.101Z,16.93
2023-07-29T03:07:36.844Z,17.02
2023-07-29T03:08:36.788Z,17.00
2023-07-29T03:09:36.692Z,17.15
2023-07-29T03:10:36.621Z,17.07
2023-07-29T03:11:36.540Z,17.08
2023-07-29T03:12:36.467Z,17.08
2023-07-29T03:13:36.387Z,17.10
2023-07-29T03:14:36.317Z,17.10
2023-07-29T03:15:36.261Z,17.14
2023-07-29T03:16:36.475Z,17.07
2023-07-29T03:17:36.108Z,16.99
2023-07-29T03:18:36.003Z,16.92
2023-07-29T03:19:35.933Z,16.95
2023-07-29T03:20:35.842Z,16.85
2023-07-29T03:21:35.775Z,16.93
2023-07-29T03:22:35.693Z,16.89
2023-07-29T03:23:35.631Z,16.81
2023-07-29T03:24:35.540Z,16.88
2023-07-29T03:25:35.458Z,16.84
2023-07-29T03:26:35.717Z,16.77
2023-07-29T03:27:35.302Z,16.75
2023-07-29T03:28:35.232Z,16.73
2023-07-29T03:29:35.150Z,16.74
2023-07-29T03:30:35.121Z,16.85
2023-07-29T03:31:34.996Z,16.81
2023-07-29T03:32:35.018Z,16.71
2023-07-29T03:33:34.838Z,16.80
2023-07-29T03:34:34.759Z,16.84
2023-07-29T03:35:34.690Z,16.73
2023-07-29T03:36:35.054Z,16.67
2023-07-29T03:37:34.531Z,16.65
2023-07-29T03:38:34.456Z,16.66
2023-07-29T03:39:34.377Z,16.66
2023-07-29T03:40:34.301Z,16.56
2023-07-29T03:41:34.238Z,16.70
2023-07-29T03:42:34.147Z,16.62
2023-07-29T03:43:34.065Z,16.75
2023-07-29T03:44:33.994Z,16.71
2023-07-29T03:45:33.912Z,16.75
2023-07-29T03:46:33.954Z,16.73
2023-07-29T03:47:33.765Z,16.84
2023-07-29T03:48:33.681Z,16.89
2023-07-29T03:49:33.610Z,16.84
2023-07-29T03:50:33.520Z,16.92
2023-07-29T03:51:33.450Z,16.92
2023-07-29T03:52:33.373Z,16.93
2023-07-29T03:53:33.296Z,17.00
2023-07-29T03:54:33.216Z,17.15
2023-07-29T03:55:33.158Z,17.13
2023-07-29T03:56:33.062Z,17.11
2023-07-29T03:57:32.995Z,17.14
2023-07-29T03:58:32.913Z,17.18
2023-07-29T03:59:32.827Z,17.18
2023-07-29T04:00:32.754Z,17.23
2023-07-29T04:01:32.783Z,17.25
2023-07-29T04:02:32.631Z,17.20
2023-07-29T04:03:32.540Z,17.20
2023-07-29T04:04:32.564Z,17.14
2023-07-29T04:05:32.362Z,17.14
2023-07-29T04:06:32.326Z,17.14
2023-07-29T04:07:32.212Z,17.13
2023-07-29T04:08:32.131Z,17.18
2023-07-29T04:09:32.050Z,17.10
2023-07-29T04:10:31.980Z,17.20
2023-07-29T04:11:31.900Z,17.25
2023-07-29T04:12:31.828Z,17.15
2023-07-29T04:13:31.758Z,17.23
2023-07-29T04:14:31.666Z,17.28
2023-07-29T04:15:31.615Z,17.20
2023-07-29T04:16:31.571Z,17.20
2023-07-29T04:17:31.456Z,17.26
2023-07-29T04:18:31.376Z,17.32
2023-07-29T04:19:31.284Z,17.40
2023-07-29T04:20:31.221Z,17.35
2023-07-29T04:21:31.133Z,17.28
2023-07-29T04:22:31.054Z,17.32
2023-07-29T04:23:30.970Z,17.38
2023-07-29T04:24:30.904Z,17.26
2023-07-29T04:25:30.833Z,17.29
2023-07-29T04:26:30.741Z,17.44
2023-07-29T04:27:30.664Z,17.40
2023-07-29T04:28:30.621Z,17.44
2023-07-29T04:29:30.509Z,17.53
2023-07-29T04:30:30.433Z,17.50
2023-07-29T04:31:30.404Z,17.53
2023-07-29T04:32:30.322Z,17.50
2023-07-29T04:33:30.196Z,17.57
2023-07-29T04:34:30.126Z,17.54
2023-07-29T04:35:30.055Z,17.51
2023-07-29T04:36:29.996Z,17.58
2023-07-29T04:37:29.895Z,17.64
2023-07-29T04:38:29.807Z,17.74
2023-07-29T04:39:29.733Z,17.63
2023-07-29T04:40:29.660Z,17.64
2023-07-29T04:41:29.590Z,17.71
2023-07-29T04:42:29.510Z,17.67
2023-07-29T04:43:29.432Z,17.64
2023-07-29T04:44:29.350Z,17.70
2023-07-29T04:45:29.304Z,17.71
2023-07-29T04:46:29.198Z,17.73
2023-07-29T04:47:29.150Z,17.71
2023-07-29T04:48:29.048Z,17.79
2023-07-29T04:49:28.976Z,17.79
2023-07-29T04:50:28.892Z,17.77
2023-07-29T04:51:28.812Z,17.81
2023-07-29T04:52:28.735Z,17.89
2023-07-29T04:53:28.674Z,17.85
2023-07-29T04:54:28.577Z,17.94
2023-07-29T04:55:28.498Z,17.89
2023-07-29T04:56:28.423Z,17.96
2023-07-29T04:57:28.352Z,17.94
2023-07-29T04:58:28.272Z,17.95
2023-07-29T04:59:28.202Z,17.96
2023-07-29T05:00:28.128Z,18.07
2023-07-29T05:01:28.074Z,18.06
2023-07-29T05:02:27.989Z,18.00
2023-07-29T05:03:27.888Z,18.09
2023-07-29T05:04:27.830Z,18.13
2023-07-29T05:05:27.732Z,18.07
2023-07-29T05:06:27.654Z,18.06
2023-07-29T05:07:27.586Z,18.13
2023-07-29T05:08:27.505Z,18.19
2023-07-29T05:09:29.014Z,18.14
2023-07-29T05:10:27.342Z,18.09
2023-07-29T05:11:27.269Z,18.24
2023-07-29T05:12:27.195Z,18.18
2023-07-29T05:13:27.126Z,18.21
2023-07-29T05:14:27.033Z,18.18
2023-07-29T05:15:26.992Z,18.19
2023-07-29T05:16:26.887Z,18.13
2023-07-29T05:17:26.843Z,18.25
2023-07-29T05:18:26.726Z,18.24
2023-07-29T05:19:26.655Z,18.22
2023-07-29T05:20:26.572Z,18.28
2023-07-29T05:21:26.505Z,18.24
2023-07-29T05:22:26.428Z,18.34
2023-07-29T05:23:26.351Z,18.34
2023-07-29T05:24:26.267Z,18.28
2023-07-29T05:25:26.189Z,18.39
2023-07-29T05:26:26.117Z,18.25
2023-07-29T05:27:26.037Z,18.35
2023-07-29T05:28:26.037Z,18.34
2023-07-29T05:29:25.878Z,18.44
2023-07-29T05:30:25.802Z,18.39
2023-07-29T05:31:25.730Z,18.47
2023-07-29T05:32:25.650Z,18.47
2023-07-29T05:33:25.664Z,18.42
2023-07-29T05:34:25.499Z,18.46
2023-07-29T05:35:25.421Z,18.40
2023-07-29T05:36:25.343Z,18.46
2023-07-29T05:37:25.318Z,18.55
2023-07-29T05:38:25.184Z,18.49
2023-07-29T05:39:25.116Z,18.55
2023-07-29T05:40:25.029Z,18.53
2023-07-29T05:41:24.965Z,18.55
2023-07-29T05:42:24.882Z,18.57
2023-07-29T05:43:24.815Z,18.59
2023-07-29T05:44:24.735Z,18.62
2023-07-29T05:45:24.652Z,18.58
2023-07-29T05:46:24.603Z,18.55
2023-07-29T05:47:24.656Z,18.59
2023-07-29T05:48:24.422Z,18.59
2023-07-29T05:49:24.350Z,18.61
2023-07-29T05:50:24.261Z,18.57
2023-07-29T05:51:24.199Z,18.68
2023-07-29T05:52:24.109Z,18.65
2023-07-29T05:53:24.038Z,18.65
2023-07-29T05:54:23.973Z,18.69
2023-07-29T05:55:23.887Z,18.65
2023-07-29T05:56:23.806Z,18.69
2023-07-29T05:57:23.744Z,18.69
2023-07-29T05:58:23.654Z,18.69
2023-07-29T05:59:23.574Z,18.71
2023-07-29T06:00:23.509Z,18.69
2023-07-29T06:01:23.453Z,18.69
2023-07-29T06:02:23.349Z,18.68
2023-07-29T06:03:23.310Z,18.62
2023-07-29T06:04:23.193Z,18.65
2023-07-29T06:05:23.128Z,18.64
2023-07-29T06:06:23.041Z,18.68
2023-07-29T06:07:22.967Z,18.65
2023-07-29T06:08:22.893Z,18.64
2023-07-29T06:09:22.818Z,18.69
2023-07-29T06:10:22.727Z,18.67
2023-07-29T06:11:22.654Z,18.68
2023-07-29T06:12:22.582Z,18.71
2023-07-29T06:13:22.500Z,18.65
2023-07-29T06:14:22.422Z,18.68
2023-07-29T06:15:22.418Z,18.64
2023-07-29T06:16:22.294Z,18.76
2023-07-29T06:17:22.248Z,18.69
2023-07-29T06:18:22.123Z,18.62
2023-07-29T06:19:22.059Z,18.68
2023-07-29T06:20:21.970Z,18.71
2023-07-29T06:21:21.898Z,18.82
2023-07-29T06:22:21.811Z,18.73
2023-07-29T06:23:21.732Z,18.79
2023-07-29T06:24:21.674Z,18.65
2023-07-29T06:25:21.641Z,18.77
2023-07-29T06:26:21.507Z,18.79
2023-07-29T06:27:21.432Z,18.76
2023-07-29T06:28:21.394Z,18.77
2023-07-29T06:29:21.287Z,18.84
2023-07-29T06:30:21.196Z,18.79
2023-07-29T06:31:21.200Z,18.82
2023-07-29T06:32:21.045Z,18.77
2023-07-29T06:33:20.971Z,18.80
2023-07-29T06:34:20.901Z,18.80
2023-07-29T06:35:20.823Z,18.87
2023-07-29T06:36:20.741Z,18.94
2023-07-29T06:37:20.668Z,18.84
2023-07-29T06:38:20.590Z,18.86
2023-07-29T06:39:20.513Z,18.98
2023-07-29T06:40:20.432Z,18.99
2023-07-29T06:41:20.780Z,18.97
2023-07-29T06:42:20.289Z,18.98
2023-07-29T06:43:20.214Z,18.92
2023-07-29T06:44:20.123Z,18.95
2023-07-29T06:45:20.081Z,18.98
2023-07-29T06:46:19.991Z,19.05
2023-07-29T06:47:19.918Z,19.01
2023-07-29T06:48:19.851Z,19.02
2023-07-29T06:49:19.748Z,19.01
2023-07-29T06:50:19.678Z,18.98
2023-07-29T06:51:19.596Z,19.13
2023-07-29T06:52:19.512Z,19.08
2023-07-29T06:53:19.441Z,19.08
2023-07-29T06:54:19.367Z,19.11
2023-07-29T06:55:19.284Z,19.09
2023-07-29T06:56:19.216Z,19.18
2023-07-29T06:57:19.132Z,19.17
2023-07-29T06:58:19.057Z,19.15
2023-07-29T06:59:18.980Z,19.13
2023-07-29T07:00:18.900Z,19.27
2023-07-29T07:01:18.910Z,19.18
2023-07-29T07:02:18.775Z,19.31
2023-07-29T07:03:18.754Z,19.25
2023-07-29T07:04:18.594Z,19.28
2023-07-29T07:05:18.524Z,19.33
2023-07-29T07:06:18.445Z,19.31
2023-07-29T07:07:18.368Z,19.28
2023-07-29T07:08:18.290Z,19.36
2023-07-29T07:09:18.220Z,19.39
2023-07-29T07:10:18.134Z,19.32
2023-07-29T07:11:18.066Z,19.38
2023-07-29T07:12:17.998Z,19.45
2023-07-29T07:13:17.924Z,19.46
2023-07-29T07:14:17.833Z,19.54
2023-07-29T07:15:17.751Z,19.53
2023-07-29T07:16:17.744Z,19.58
2023-07-29T07:17:17.606Z,19.63
2023-07-29T07:18:17.531Z,19.71
2023-07-29T07:19:17.456Z,19.63
2023-07-29T07:20:17.380Z,19.80
2023-07-29T07:21:17.298Z,19.76
2023-07-29T07:22:17.227Z,19.76
2023-07-29T07:23:17.158Z,19.76
2023-07-29T07:24:17.069Z,19.80
2023-07-29T07:25:17.021Z,19.69
2023-07-29T07:26:16.921Z,19.64
2023-07-29T07:27:16.851Z,19.63
2023-07-29T07:28:16.811Z,19.61
2023-07-29T07:29:16.692Z,19.57
2023-07-29T07:30:16.610Z,19.54
2023-07-29T07:31:19.461Z,19.55
2023-07-29T07:32:16.462Z,19.57
2023-07-29T07:33:16.384Z,19.55
2023-07-29T07:34:16.308Z,19.65
2023-07-29T07:35:16.234Z,19.61
2023-07-29T07:36:16.157Z,19.65
2023-07-29T07:37:16.079Z,19.61
2023-07-29T07:38:16.017Z,19.63
2023-07-29T07:39:15.933Z,19.63
2023-07-29T07:40:15.859Z,19.71
2023-07-29T07:41:15.791Z,19.72
2023-07-29T07:42:15.707Z,19.76
2023-07-29T07:43:15.623Z,19.78
2023-07-29T07:44:15.564Z,19.90
2023-07-29T07:45:15.478Z,19.91
2023-07-29T07:46:15.450Z,19.83
2023-07-29T07:47:15.314Z,19.87
2023-07-29T07:48:15.238Z,19.83
2023-07-29T07:49:15.170Z,19.80
2023-07-29T07:50:15.093Z,19.72
2023-07-29T07:51:15.032Z,19.75
2023-07-29T07:52:14.934Z,19.78
2023-07-29T07:53:14.872Z,19.72
2023-07-29T07:54:14.800Z,19.76
2023-07-29T07:55:14.714Z,19.75
2023-07-29T07:56:14.639Z,19.82
2023-07-29T07:57:14.578Z,19.78
2023-07-29T07:58:14.476Z,19.82
2023-07-29T07:59:16.809Z,19.87
2023-07-29T08:00:14.333Z,19.93
2023-07-29T08:01:14.290Z,19.95
2023-07-29T08:02:14.176Z,19.95
2023-07-29T08:03:14.260Z,20.03
2023-07-29T08:04:14.024Z,20.01
2023-07-29T08:05:13.959Z,20.01
2023-07-29T08:06:13.874Z,19.98
2023-07-29T08:07:13.792Z,20.06
2023-07-29T08:08:13.742Z,20.05
2023-07-29T08:09:13.655Z,20.10
2023-07-29T08:10:13.571Z,20.15
2023-07-29T08:11:13.492Z,20.10
2023-07-29T08:12:13.419Z,20.12
2023-07-29T08:13:13.348Z,20.09
2023-07-29T08:14:13.267Z,20.12
2023-07-29T08:15:13.198Z,20.10
2023-07-29T08:16:13.183Z,20.13
2023-07-29T08:17:13.050Z,20.12
2023-07-29T08:18:12.960Z,20.24
2023-07-29T08:19:12.886Z,20.26
2023-07-29T08:20:12.807Z,20.28
2023-07-29T08:21:12.732Z,20.33
2023-07-29T08:22:12.664Z,20.26
2023-07-29T08:23:12.587Z,20.24
2023-07-29T08:24:12.501Z,20.23
2023-07-29T08:25:12.447Z,20.26
2023-07-29T08:26:12.366Z,20.28
2023-07-29T08:27:12.285Z,20.27
2023-07-29T08:28:12.241Z,20.28
2023-07-29T08:29:12.135Z,20.38
2023-07-29T08:30:12.054Z,20.42
2023-07-29T08:31:12.003Z,20.43
2023-07-29T08:32:11.912Z,20.53
2023-07-29T08:33:11.866Z,20.50
2023-07-29T08:34:11.812Z,20.50
2023-07-29T08:35:11.682Z,20.56
2023-07-29T08:36:11.600Z,20.46
2023-07-29T08:37:11.517Z,20.59
2023-07-29T08:38:11.444Z,20.51
2023-07-29T08:39:11.418Z,20.46
2023-07-29T08:40:11.319Z,20.51
2023-07-29T08:41:11.236Z,20.49
2023-07-29T08:42:11.141Z,20.65
2023-07-29T08:43:11.070Z,20.53
2023-07-29T08:44:13.161Z,20.57
2023-07-29T08:45:10.921Z,20.62
2023-07-29T08:46:10.848Z,20.62
2023-07-29T08:47:10.812Z,20.65
2023-07-29T08:48:10.739Z,20.66
2023-07-29T08:49:10.613Z,20.69
2023-07-29T08:50:11.526Z,20.62
2023-07-29T08:51:10.475Z,20.62
2023-07-29T08:52:10.382Z,20.51
2023-07-29T08:53:10.306Z,20.53
2023-07-29T08:54:10.236Z,20.59
2023-07-29T08:55:10.157Z,20.50
2023-07-29T08:56:10.096Z,20.57
2023-07-29T08:57:10.006Z,20.53
2023-07-29T08:58:09.929Z,20.51
2023-07-29T08:59:09.867Z,20.57
2023-07-29T09:00:09.785Z,20.54
2023-07-29T09:01:09.763Z,20.50
2023-07-29T09:02:09.731Z,20.56
2023-07-29T09:03:09.628Z,20.57
2023-07-29T09:04:09.475Z,20.64
2023-07-29T09:05:09.410Z,20.62
2023-07-29T09:06:09.329Z,20.56
2023-07-29T09:07:09.252Z,20.56
2023-07-29T09:08:09.172Z,20.43
2023-07-29T09:09:09.104Z,20.47
2023-07-29T09:10:09.032Z,20.49
2023-07-29T09:11:08.942Z,20.47
2023-07-29T09:12:08.873Z,20.50
2023-07-29T09:13:08.800Z,20.50
2023-07-29T09:14:08.721Z,20.50
2023-07-29T09:15:08.639Z,20.49
2023-07-29T09:16:08.567Z,20.49
2023-07-29T09:17:08.550Z,20.40
2023-07-29T09:18:08.444Z,20.37
2023-07-29T09:19:08.344Z,20.35
2023-07-29T09:20:08.270Z,20.33
2023-07-29T09:21:08.204Z,20.28
2023-07-29T09:22:08.109Z,20.28
2023-07-29T09:23:08.033Z,20.38
2023-07-29T09:24:07.984Z,20.33
2023-07-29T09:25:07.883Z,20.37
2023-07-29T09:26:07.816Z,20.34
2023-07-29T09:27:07.734Z,20.37
2023-07-29T09:28:07.682Z,20.24
2023-07-29T09:29:07.586Z,20.24
2023-07-29T09:30:07.524Z,20.33
2023-07-29T09:31:07.452Z,20.26
2023-07-29T09:32:07.366Z,20.23
2023-07-29T09:33:07.322Z,20.15
2023-07-29T09:34:07.212Z,20.08
2023-07-29T09:35:07.129Z,20.05
2023-07-29T09:36:07.055Z,20.06
2023-07-29T09:37:07.000Z,20.06
2023-07-29T09:38:06.910Z,20.09
2023-07-29T09:39:06.828Z,20.08
2023-07-29T09:40:06.766Z,20.09
2023-07-29T09:41:06.675Z,20.09
2023-07-29T09:42:06.610Z,20.12
2023-07-29T09:43:06.526Z,20.19
2023-07-29T09:44:06.453Z,20.24
2023-07-29T09:45:06.385Z,20.19
2023-07-29T09:46:06.340Z,20.28
2023-07-29T09:47:06.228Z,20.34
2023-07-29T09:48:06.285Z,20.37
2023-07-29T09:49:06.090Z,20.43
2023-07-29T09:50:05.998Z,20.50
2023-07-29T09:51:05.922Z,20.56
2023-07-29T09:52:05.849Z,20.57
2023-07-29T09:53:05.763Z,20.56
2023-07-29T09:54:05.720Z,20.65
2023-07-29T09:55:05.623Z,20.66
2023-07-29T09:56:05.546Z,20.68
2023-07-29T09:57:05.472Z,20.79
2023-07-29T09:58:05.426Z,20.87
2023-07-29T09:59:06.002Z,20.82
2023-07-29T10:00:05.245Z,20.76
2023-07-29T10:01:05.170Z,20.86
2023-07-29T10:02:05.146Z,21.05
2023-07-29T10:03:05.048Z,20.99
2023-07-29T10:04:05.025Z,21.09
2023-07-29T10:05:04.863Z,20.99
2023-07-29T10:06:04.798Z,20.98
2023-07-29T10:07:04.720Z,21.05
2023-07-29T10:08:04.646Z,21.01
2023-07-29T10:09:04.564Z,21.06
2023-07-29T10:10:04.502Z,21.09
2023-07-29T10:11:04.414Z,21.09
2023-07-29T10:12:04.335Z,21.17
2023-07-29T10:13:04.266Z,21.19
2023-07-29T10:14:07.910Z,21.14
2023-07-29T10:15:04.108Z,21.11
2023-07-29T10:16:04.142Z,21.24
2023-07-29T10:17:03.962Z,21.33
2023-07-29T10:18:03.908Z,21.29
2023-07-29T10:19:03.873Z,21.39
2023-07-29T10:20:03.742Z,21.30
2023-07-29T10:21:03.667Z,21.39
2023-07-29T10:22:03.587Z,21.41
2023-07-29T10:23:03.509Z,21.33
2023-07-29T10:24:03.432Z,21.48
2023-07-29T10:25:03.372Z,21.53
2023-07-29T10:26:03.285Z,21.48
2023-07-29T10:27:03.211Z,21.64
2023-07-29T10:28:03.178Z,21.53
2023-07-29T10:29:03.081Z,21.72
2023-07-29T10:30:02.984Z,21.78
2023-07-29T10:31:02.916Z,21.69
2023-07-29T10:32:02.838Z,21.72
2023-07-29T10:33:02.841Z,21.85
2023-07-29T10:34:02.719Z,21.86
2023-07-29T10:35:02.610Z,21.94
2023-07-29T10:36:02.551Z,21.91
2023-07-29T10:37:02.464Z,22.04
2023-07-29T10:38:02.386Z,22.07
2023-07-29T10:39:02.310Z,22.01
2023-07-29T10:40:02.235Z,22.12
2023-07-29T10:41:02.245Z,22.28
2023-07-29T10:42:02.092Z,22.23
2023-07-29T10:43:02.000Z,22.39
2023-07-29T10:44:01.935Z,22.56
2023-07-29T10:45:01.856Z,22.75
2023-07-29T10:46:14.964Z,22.78
2023-07-29T10:47:01.753Z,22.72
2023-07-29T10:48:01.683Z,22.74
2023-07-29T10:49:01.560Z,22.77
2023-07-29T10:50:01.495Z,22.86
2023-07-29T10:51:01.415Z,23.04
2023-07-29T10:52:01.335Z,23.18
2023-07-29T10:53:01.273Z,23.37
2023-07-29T10:54:01.196Z,23.53
2023-07-29T10:55:01.174Z,23.60
2023-07-29T10:56:01.039Z,23.56
2023-07-29T10:57:00.976Z,23.65
2023-07-29T10:58:00.889Z,23.70
2023-07-29T10:59:00.809Z,23.78
2023-07-29T11:00:00.741Z,23.65
2023-07-29T11:01:00.668Z,23.65
2023-07-29T11:02:00.630Z,23.82
2023-07-29T11:03:00.550Z,23.87
2023-07-29T11:04:00.443Z,23.95
2023-07-29T11:05:00.446Z,24.08
2023-07-29T11:06:00.300Z,24.08
2023-07-29T11:07:00.225Z,24.04
2023-07-29T11:08:00.156Z,24.10
2023-07-29T11:09:00.078Z,24.10
2023-07-29T11:09:59.997Z,24.17
2023-07-29T11:10:59.935Z,24.27
2023-07-29T11:11:59.872Z,24.32
2023-07-29T11:12:59.780Z,24.29
2023-07-29T11:13:59.702Z,24.23
2023-07-29T11:14:59.634Z,24.26
2023-07-29T11:15:59.808Z,24.30
2023-07-29T11:16:59.488Z,24.30
2023-07-29T11:17:59.448Z,24.42
2023-07-29T11:18:59.346Z,24.53
2023-07-29T11:19:59.269Z,24.45
2023-07-29T11:20:59.192Z,24.59
2023-07-29T11:21:59.136Z,24.60
2023-07-29T11:22:59.045Z,24.62
2023-07-29T11:23:58.984Z,24.76
2023-07-29T11:24:58.902Z,24.54
2023-07-29T11:25:58.832Z,24.54
2023-07-29T11:26:58.754Z,24.54
2023-07-29T11:27:58.734Z,24.50
2023-07-29T11:28:58.607Z,24.66
2023-07-29T11:29:58.537Z,24.57
2023-07-29T11:30:58.492Z,24.50
2023-07-29T11:31:58.393Z,24.52
2023-07-29T11:32:58.350Z,24.50
2023-07-29T11:33:58.242Z,24.54
2023-07-29T11:34:58.174Z,24.52
2023-07-29T11:35:58.085Z,24.38
2023-07-29T11:36:58.013Z,24.32
2023-07-29T11:37:58.044Z,24.25
2023-07-29T11:38:57.874Z,24.19
2023-07-29T11:39:57.803Z,24.17
2023-07-29T11:40:57.736Z,24.08
2023-07-29T11:41:57.655Z,23.95
2023-07-29T11:42:57.576Z,23.95
2023-07-29T11:43:57.508Z,24.01
2023-07-29T11:44:57.433Z,23.90
2023-07-29T11:45:57.368Z,23.92
2023-07-29T11:46:57.303Z,23.87
2023-07-29T11:47:57.270Z,23.86
2023-07-29T11:48:57.141Z,23.89
2023-07-29T11:49:57.065Z,23.86
2023-07-29T11:50:57.002Z,23.87
2023-07-29T11:51:56.927Z,23.85
2023-07-29T11:52:56.848Z,23.89
2023-07-29T11:53:56.774Z,23.95
2023-07-29T11:54:56.704Z,24.01
2023-07-29T11:55:56.627Z,23.89
2023-07-29T11:56:56.563Z,23.89
2023-07-29T11:57:56.484Z,23.86
2023-07-29T11:58:56.419Z,23.90
2023-07-29T11:59:56.333Z,23.85
2023-07-29T12:00:56.264Z,23.92
2023-07-29T12:01:56.188Z,23.87
2023-07-29T12:02:56.222Z,23.92
2023-07-29T12:03:56.075Z,23.98
2023-07-29T12:04:55.971Z,24.05
2023-07-29T12:05:55.897Z,24.11
2023-07-29T12:06:55.821Z,24.07
2023-07-29T12:07:55.752Z,24.12
2023-07-29T12:08:55.678Z,24.19
2023-07-29T12:09:55.607Z,24.07
2023-07-29T12:10:55.527Z,24.16
2023-07-29T12:11:55.468Z,24.29
2023-07-29T12:12:55.388Z,24.26
2023-07-29T12:13:55.319Z,24.30
2023-07-29T12:14:55.245Z,24.37
2023-07-29T12:15:55.167Z,24.47
2023-07-29T12:16:55.145Z,24.45
2023-07-29T12:17:55.075Z,24.54
2023-07-29T12:18:54.941Z,24.63
2023-07-29T12:19:54.879Z,24.63
2023-07-29T12:20:54.794Z,24.80
2023-07-29T12:21:54.724Z,24.88
2023-07-29T12:22:54.651Z,25.04
2023-07-29T12:23:54.590Z,25.16
2023-07-29T12:24:54.509Z,25.10
2023-07-29T12:25:54.434Z,25.16
2023-07-29T12:26:54.367Z,25.17
2023-07-29T12:27:54.457Z,25.27
2023-07-29T12:28:54.217Z,25.34
2023-07-29T12:29:54.141Z,25.30
2023-07-29T12:30:54.114Z,25.40
2023-07-29T12:31:53.996Z,25.53
2023-07-29T12:32:53.941Z,25.55
2023-07-29T12:33:53.852Z,25.74
2023-07-29T12:34:53.774Z,25.82
2023-07-29T12:35:53.723Z,25.87
2023-07-29T12:36:53.653Z,25.94
2023-07-29T12:37:53.559Z,26.07
2023-07-29T12:38:53.484Z,26.07
2023-07-29T12:39:53.422Z,25.92
2023-07-29T12:40:53.362Z,25.92
2023-07-29T12:41:53.304Z,25.86
2023-07-29T12:42:53.198Z,25.84
2023-07-29T12:43:53.123Z,25.87
2023-07-29T12:44:53.080Z,25.97
2023-07-29T12:45:52.992Z,26.04
2023-07-29T12:46:52.936Z,25.97
2023-07-29T12:47:52.922Z,25.93
2023-07-29T12:48:52.777Z,26.01
2023-07-29T12:49:52.696Z,25.94
2023-07-29T12:50:52.620Z,26.05
2023-07-29T12:51:52.554Z,26.08